Time;durP1;ratioP1;P1;durP2;ratioP2;P2;SDS_P1;SDS_P2;PMS_P1;PMS_P2;Temp;Humidity;BMP_temperature;BMP_pressure;BME280_temperature;BME280_humidity;BME280_pressure;Samples;Min_cycle;Max_cycle;Signal;HPM_P1;HPM_P2
2022/06/21 00:00:50;;;;;;;11.97;6.33;;;13.80;51.80;;;;;;5074355;28;20725;-67
2022/06/21 00:03:26;;;;;;;10.60;5.73;;;13.80;52.10;;;;;;5073306;28;20248;-67
2022/06/21 00:05:53;;;;;;;10.37;5.97;;;13.90;52.50;;;;;;5074698;28;20172;-67
2022/06/21 00:08:27;;;;;;;11.13;5.97;;;13.80;51.80;;;;;;5074535;28;20500;-67
2022/06/21 00:10:54;;;;;;;11.73;6.03;;;13.80;53.30;;;;;;5074446;28;20167;-67
2022/06/21 00:13:23;;;;;;;11.27;6.30;;;13.70;58.70;;;;;;5074561;28;20169;-67
2022/06/21 00:15:52;;;;;;;12.30;6.00;;;13.70;62.30;;;;;;5074188;28;20173;-67
2022/06/21 00:18:22;;;;;;;10.30;5.87;;;13.60;62.30;;;;;;5074140;28;20219;-67
2022/06/21 00:20:48;;;;;;;8.00;6.07;;;13.70;64.60;;;;;;5074305;28;20176;-65
2022/06/21 00:23:21;;;;;;;11.17;6.17;;;13.60;64.50;;;;;;5074248;28;20509;-66
2022/06/21 00:25:47;;;;;;;9.87;6.57;;;13.70;65.20;;;;;;5074256;28;20671;-66
2022/06/21 00:28:16;;;;;;;12.27;6.57;;;13.50;68.20;;;;;;5074145;28;20212;-67
2022/06/21 00:30:43;;;;;;;12.23;6.70;;;13.50;71.20;;;;;;5074614;28;20168;-67
2022/06/21 00:33:12;;;;;;;9.43;6.67;;;13.40;71.20;;;;;;5074343;28;20180;-67
2022/06/21 00:35:41;;;;;;;13.13;7.30;;;13.50;74.20;;;;;;5074061;28;20161;-67
2022/06/21 00:38:13;;;;;;;13.87;7.03;;;13.50;72.80;;;;;;5073497;28;20165;-68
2022/06/21 00:40:38;;;;;;;11.27;6.77;;;13.50;74.30;;;;;;5074419;28;20262;-67
2022/06/21 00:43:16;;;;;;;10.50;6.53;;;13.50;74.70;;;;;;5073522;28;20200;-66
2022/06/21 00:45:44;;;;;;;12.17;6.70;;;13.50;77.90;;;;;;5074195;28;20267;-67
2022/06/21 00:48:39;;;;;;;14.53;6.50;;;13.40;77.20;;;;;;5073848;28;20207;-67
2022/06/21 00:51:20;;;;;;;14.40;6.47;;;13.40;81.00;;;;;;5074141;28;20176;-67
2022/06/21 00:54:15;;;;;;;10.30;6.53;;;13.40;82.90;;;;;;5073560;28;20530;-68
2022/06/21 00:56:56;;;;;;;10.33;7.10;;;13.40;84.10;;;;;;5072081;28;20180;-67
2022/06/21 00:59:29;;;;;;;11.93;6.43;;;13.40;83.90;;;;;;5073388;28;20208;-66
2022/06/21 01:02:02;;;;;;;11.40;6.93;;;13.40;82.80;;;;;;5073891;28;20172;-67
2022/06/21 01:04:40;;;;;;;12.90;7.33;;;13.40;83.30;;;;;;5073314;28;20220;-65
2022/06/21 01:07:10;;;;;;;11.90;7.27;;;13.40;83.60;;;;;;5073765;28;20172;-67
2022/06/21 01:09:52;;;;;;;10.53;6.93;;;13.40;85.00;;;;;;5073671;28;20171;-66
2022/06/21 01:12:24;;;;;;;13.87;7.33;;;13.30;87.10;;;;;;5073348;28;20187;-67
2022/06/21 01:14:58;;;;;;;11.87;7.23;;;13.30;90.10;;;;;;5073615;28;20255;-67
2022/06/21 01:17:26;;;;;;;13.00;7.60;;;13.30;90.50;;;;;;5073326;28;20558;-67
2022/06/21 01:20:06;;;;;;;15.50;7.33;;;13.20;90.80;;;;;;5073263;28;20258;-66
2022/06/21 01:22:58;;;;;;;12.50;8.03;;;13.20;91.90;;;;;;5073451;28;20172;-67
2022/06/21 01:25:42;;;;;;;17.03;8.27;;;13.20;92.40;;;;;;5069530;28;20204;-67
2022/06/21 01:28:09;;;;;;;16.87;8.47;;;13.10;93.40;;;;;;5073034;28;20173;-67
2022/06/21 01:30:36;;;;;;;15.10;8.53;;;13.10;93.90;;;;;;5073438;28;20286;-66
2022/06/21 01:33:02;;;;;;;13.83;8.23;;;13.10;94.00;;;;;;5073081;28;20172;-66
2022/06/21 01:35:46;;;;;;;12.60;7.73;;;13.10;94.50;;;;;;5073236;28;20256;-67
2022/06/21 01:38:21;;;;;;;13.07;8.50;;;13.00;95.50;;;;;;5073102;28;20217;-67
2022/06/21 01:40:51;;;;;;;12.90;8.33;;;13.00;95.90;;;;;;5073011;28;20172;-67
2022/06/21 01:43:22;;;;;;;15.40;9.00;;;13.00;96.60;;;;;;5073208;28;20173;-66
2022/06/21 01:45:53;;;;;;;13.47;8.63;;;13.00;96.60;;;;;;5073166;28;20194;-66
2022/06/21 01:48:27;;;;;;;10.93;8.93;;;13.00;97.20;;;;;;5073170;28;20173;-66
2022/06/21 01:51:03;;;;;;;12.03;8.33;;;12.90;97.40;;;;;;5075167;28;20176;-66
2022/06/21 01:53:29;;;;;;;13.17;9.37;;;12.90;97.40;;;;;;5077151;28;20225;-67
2022/06/21 01:56:06;;;;;;;11.70;9.03;;;12.90;98.50;;;;;;5077071;28;20171;-67
2022/06/21 01:58:35;;;;;;;16.60;9.30;;;12.90;99.10;;;;;;5077083;28;20231;-67
2022/06/21 02:01:31;;;;;;;17.00;9.73;;;12.80;99.70;;;;;;5077199;28;20178;-67
2022/06/21 02:04:01;;;;;;;13.30;9.70;;;12.80;99.90;;;;;;5076920;28;20220;-66
2022/06/21 02:06:31;;;;;;;12.30;9.30;;;12.80;99.90;;;;;;5077152;28;20180;-67
2022/06/21 02:09:13;;;;;;;14.63;9.43;;;12.70;99.90;;;;;;5076992;28;20242;-67
2022/06/21 02:11:45;;;;;;;13.93;9.60;;;12.70;99.90;;;;;;5076526;28;20176;-67
2022/06/21 02:14:31;;;;;;;20.57;9.77;;;12.70;99.90;;;;;;5076942;28;20184;-67
2022/06/21 02:17:02;;;;;;;13.93;10.33;;;12.70;99.90;;;;;;5076786;28;20169;-67
2022/06/21 02:19:51;;;;;;;16.43;9.70;;;12.60;99.90;;;;;;5076909;28;20235;-67
2022/06/21 02:22:23;;;;;;;21.37;10.10;;;12.60;99.90;;;;;;5076055;28;20181;-66
2022/06/21 02:24:51;;;;;;;12.37;10.07;;;12.60;99.90;;;;;;5076419;28;20184;-67
2022/06/21 02:27:21;;;;;;;18.33;10.13;;;12.60;99.90;;;;;;5076512;28;20176;-67
2022/06/21 02:29:51;;;;;;;15.97;10.27;;;12.60;99.90;;;;;;5076578;28;20176;-67
2022/06/21 02:32:35;;;;;;;16.30;11.03;;;12.50;99.90;;;;;;5076347;28;20175;-66
2022/06/21 02:35:19;;;;;;;20.50;10.23;;;12.50;99.90;;;;;;5076404;28;20173;-66
2022/06/21 02:37:47;;;;;;;15.30;10.67;;;12.50;99.90;;;;;;5076366;28;20205;-66
2022/06/21 02:40:21;;;;;;;14.23;10.80;;;12.40;99.90;;;;;;5075832;28;20216;-66
2022/06/21 02:42:48;;;;;;;18.73;10.40;;;12.40;99.90;;;;;;5076180;28;20187;-66
2022/06/21 02:45:25;;;;;;;14.50;10.03;;;12.40;99.90;;;;;;5076279;28;20175;-66
2022/06/21 02:47:53;;;;;;;17.03;10.73;;;12.30;99.90;;;;;;5076257;28;20160;-66
2022/06/21 02:50:32;;;;;;;17.53;11.43;;;12.30;99.90;;;;;;5075981;28;20215;-66
2022/06/21 02:53:01;;;;;;;13.17;10.97;;;12.30;99.90;;;;;;5075987;28;20664;-67
2022/06/21 02:56:03;;;;;;;17.90;11.40;;;12.30;99.90;;;;;;5075516;28;20165;-67
2022/06/21 02:58:40;;;;;;;15.73;10.67;;;12.30;99.90;;;;;;5003936;28;20207;-66
2022/06/21 03:01:17;;;;;;;19.37;11.43;;;12.30;99.90;;;;;;5075877;28;20181;-67
2022/06/21 03:03:43;;;;;;;19.83;11.97;;;12.30;99.90;;;;;;5075781;28;20220;-66
2022/06/21 03:06:13;;;;;;;18.97;11.20;;;12.30;99.90;;;;;;5075893;28;20655;-67
2022/06/21 03:08:54;;;;;;;20.37;12.23;;;12.30;99.90;;;;;;5075345;28;20173;-66
2022/06/21 03:11:22;;;;;;;19.27;11.93;;;12.20;99.90;;;;;;5075771;28;20172;-67
2022/06/21 03:13:49;;;;;;;22.73;11.77;;;12.20;99.90;;;;;;5075489;28;20169;-66
2022/06/21 03:16:18;;;;;;;17.67;11.80;;;12.20;99.90;;;;;;5075933;28;20238;-66
2022/06/21 03:18:49;;;;;;;13.87;11.07;;;12.20;99.90;;;;;;5075367;28;20204;-67
2022/06/21 03:21:16;;;;;;;22.50;12.33;;;12.10;99.90;;;;;;5075477;28;20169;-67
2022/06/21 03:23:44;;;;;;;20.27;12.50;;;12.20;99.90;;;;;;5075014;28;20171;-66
2022/06/21 03:26:13;;;;;;;15.33;11.83;;;12.20;99.90;;;;;;5075387;28;20255;-67
2022/06/21 03:28:41;;;;;;;21.17;12.03;;;12.20;99.90;;;;;;5075256;28;20263;-66
2022/06/21 03:31:12;;;;;;;18.53;11.80;;;12.20;99.90;;;;;;5075225;28;20175;-66
2022/06/21 03:33:44;;;;;;;18.23;12.80;;;12.30;99.90;;;;;;5075347;28;20187;-66
2022/06/21 03:36:14;;;;;;;17.67;12.50;;;12.40;99.90;;;;;;5075146;28;20169;-67
2022/06/21 03:38:44;;;;;;;17.97;12.60;;;12.40;99.90;;;;;;5073380;28;20701;-66
2022/06/21 03:44:26;;;;;;;22.60;13.20;;;12.30;99.90;;;;;;5075013;28;20268;-67
2022/06/21 03:46:52;;;;;;;16.93;13.20;;;12.40;99.90;;;;;;5064478;28;20190;-67
2022/06/21 03:49:41;;;;;;;17.67;12.80;;;12.50;99.90;;;;;;5074983;28;20176;-67
2022/06/21 03:52:15;;;;;;;16.83;12.40;;;12.60;99.90;;;;;;5073647;28;20207;-67
2022/06/21 03:54:47;;;;;;;16.27;12.53;;;12.90;99.90;;;;;;5074757;28;20562;-66
2022/06/21 03:57:23;;;;;;;16.77;12.07;;;13.10;99.90;;;;;;5074518;28;20181;-67
2022/06/21 04:00:01;;;;;;;17.70;11.87;;;13.50;99.90;;;;;;5074075;28;20212;-67
2022/06/21 04:02:53;;;;;;;16.67;11.03;;;13.80;85.60;;;;;;5074408;28;20165;-66
2022/06/21 04:05:35;;;;;;;14.23;10.47;;;13.90;71.70;;;;;;5034494;28;20186;-66
2022/06/21 04:08:14;;;;;;;15.67;10.87;;;14.10;62.80;;;;;;5034271;28;20170;-67
2022/06/21 04:10:43;;;;;;;18.27;10.43;;;14.60;53.80;;;;;;5034207;28;20180;-67
2022/06/21 04:13:17;;;;;;;14.50;10.17;;;14.90;29.70;;;;;;5033521;28;20170;-67
2022/06/21 04:16:24;;;;;;;12.80;10.00;;;15.50;21.20;;;;;;5034451;28;20183;-67
2022/06/21 04:18:59;;;;;;;10.97;8.03;;;16.50;1.00;;;;;;5034100;28;20216;-67
2022/06/21 04:21:38;;;;;;;13.47;8.60;;;16.60;1.00;;;;;;5033774;28;20580;-67
2022/06/21 04:24:21;;;;;;;11.50;7.97;;;16.60;1.00;;;;;;5033807;28;20180;-67
2022/06/21 04:27:15;;;;;;;14.97;8.40;;;17.70;1.00;;;;;;5033439;28;20181;-67
2022/06/21 04:29:54;;;;;;;11.60;7.73;;;18.90;1.00;;;;;;5034157;28;20192;-68
2022/06/21 04:32:28;;;;;;;10.30;6.65;;;19.60;99.90;;;;;;5033624;28;20535;-68
2022/06/21 04:35:13;;;;;;;11.68;6.60;;;20.20;1.00;;;;;;5033666;28;20177;-68
2022/06/21 04:38:03;;;;;;;14.48;6.63;;;20.70;1.00;;;;;;5033896;28;20170;-68
2022/06/21 04:40:47;;;;;;;10.70;6.25;;;20.90;1.00;;;;;;5002762;28;20220;-68
2022/06/21 04:43:31;;;;;;;10.32;6.10;;;20.30;1.00;;;;;;5033814;28;20173;-68
2022/06/21 04:46:09;;;;;;;6.18;5.57;;;19.00;43.40;;;;;;5033420;28;20162;-67
2022/06/21 04:48:44;;;;;;;9.27;6.00;;;18.90;99.90;;;;;;5033850;28;20213;-67
2022/06/21 04:51:27;;;;;;;11.70;6.63;;;18.60;1.00;;;;;;5032639;28;20216;-66
2022/06/21 04:54:00;;;;;;;8.57;6.23;;;17.70;1.00;;;;;;5032910;28;20173;-67
2022/06/21 04:56:45;;;;;;;8.33;6.17;;;17.20;1.00;;;;;;5033371;28;20205;-67
2022/06/21 04:59:26;;;;;;;7.67;5.93;;;17.30;1.00;;;;;;5033311;28;20315;-68
2022/06/21 05:01:53;;;;;;;11.53;5.90;;;17.80;1.00;;;;;;5032953;28;20501;-68
2022/06/21 05:04:25;;;;;;;8.90;5.53;;;19.10;1.00;;;;;;5063115;28;20255;-68
2022/06/21 05:06:51;;;;;;;7.93;5.57;;;20.20;1.00;;;;;;5072999;28;20198;-68
2022/06/21 05:09:20;;;;;;;8.20;5.45;;;21.70;99.90;;;;;;5072860;28;20180;-68
2022/06/21 05:11:58;;;;;;;9.20;5.15;;;22.70;1.00;;;;;;5072935;28;20185;-68
2022/06/21 05:14:30;;;;;;;8.38;5.45;;;24.30;1.00;;;;;;5073006;28;20175;-68
2022/06/21 05:16:56;;;;;;;5.28;4.80;;;23.90;1.00;;;;;;5071983;28;20180;-68
2022/06/21 05:19:31;;;;;;;7.22;5.30;;;21.30;99.90;;;;;;5072360;28;20212;-68
2022/06/21 05:22:07;;;;;;;6.78;5.50;;;20.50;1.00;;;;;;5072453;28;20159;-68
2022/06/21 05:24:33;;;;;;;6.32;4.90;;;21.40;1.00;;;;;;5072353;28;20575;-67
2022/06/21 05:27:06;;;;;;;8.35;5.22;;;21.00;99.90;;;;;;5072200;28;20169;-69
2022/06/21 05:29:54;;;;;;;9.05;5.47;;;20.90;1.00;;;;;;5072200;28;20187;-68
2022/06/21 05:32:26;;;;;;;10.60;5.70;;;22.20;99.90;;;;;;5072710;28;20295;-68
2022/06/21 05:35:01;;;;;;;6.65;5.03;;;21.90;99.90;;;;;;5071943;28;20172;-68
2022/06/21 05:37:35;;;;;;;8.23;5.43;;;20.80;99.90;;;;;;5072279;28;20174;-68
2022/06/21 05:40:12;;;;;;;10.93;5.70;;;19.80;99.90;;;;;;5070956;28;20265;-68
2022/06/21 05:42:38;;;;;;;7.85;6.05;;;19.30;1.00;;;;;;5072046;28;20160;-67
2022/06/21 05:45:13;;;;;;;7.10;6.25;;;18.40;99.90;;;;;;5071991;28;20179;-68
2022/06/21 05:47:45;;;;;;;11.05;6.07;;;18.50;99.90;;;;;;5070944;28;20237;-68
2022/06/21 05:50:19;;;;;;;9.13;5.88;;;18.60;99.90;;;;;;5072352;28;20235;-67
2022/06/21 05:52:48;;;;;;;6.43;5.22;;;18.40;1.00;;;;;;5071873;28;20169;-68
2022/06/21 05:55:21;;;;;;;8.48;6.20;;;18.90;1.00;;;;;;5071240;28;20217;-68
2022/06/21 05:58:01;;;;;;;10.35;5.80;;;19.00;1.00;;;;;;5070869;28;20190;-67
2022/06/21 06:00:45;;;;;;;8.55;5.57;;;19.00;99.90;;;;;;5071532;28;20220;-69
2022/06/21 06:03:19;;;;;;;7.93;5.75;;;19.70;1.00;;;;;;5071039;28;20695;-68
2022/06/21 06:05:47;;;;;;;10.18;5.72;;;20.50;1.00;;;;;;5071361;28;20658;-68
2022/06/21 06:08:24;;;;;;;8.23;5.40;;;21.00;4.30;;;;;;5071444;28;20697;-69
2022/06/21 06:10:50;;;;;;;6.15;5.20;;;21.50;1.00;;;;;;5071915;28;20241;-69
2022/06/21 06:13:39;;;;;;;8.38;5.40;;;20.90;99.90;;;;;;5072399;28;20173;-68
2022/06/21 06:16:15;;;;;;;9.13;5.60;;;19.80;99.90;;;;;;5072023;28;20169;-68
2022/06/21 06:19:01;;;;;;;7.55;5.20;;;20.30;1.00;;;;;;5071256;28;20192;-68
2022/06/21 06:21:39;;;;;;;6.95;5.10;;;21.00;24.10;;;;;;5071053;28;20251;-69
2022/06/21 06:24:14;;;;;;;5.20;4.70;;;21.60;1.00;;;;;;5071705;28;20176;-69
2022/06/21 06:26:44;;;;;;;6.60;4.90;;;22.00;1.00;;;;;;5071292;28;20164;-69
2022/06/21 06:29:28;;;;;;;9.50;5.30;;;22.80;99.90;;;;;;5070829;28;20528;-69
2022/06/21 06:32:32;;;;;;;8.35;5.07;;;24.00;1.00;;;;;;5071308;28;20200;-69
2022/06/21 06:34:59;;;;;;;7.70;5.10;;;24.20;1.00;;;;;;5030250;28;20199;-70
2022/06/21 06:37:30;;;;;;;6.75;4.93;;;24.90;99.90;;;;;;5073327;28;20211;-69
2022/06/21 06:39:56;;;;;;;5.97;5.25;;;24.20;1.00;;;;;;5075355;28;20219;-70
2022/06/21 06:42:25;;;;;;;8.02;5.20;;;24.30;1.00;;;;;;5074856;28;20585;-70
2022/06/21 06:44:53;;;;;;;7.47;5.25;;;24.50;99.90;;;;;;5075365;28;20230;-69
2022/06/21 06:47:28;;;;;;;7.85;4.78;;;24.30;1.00;;;;;;5073835;28;20165;-71
2022/06/21 06:50:20;;;;;;;8.68;4.60;;;24.00;99.90;;;;;;5085338;28;20546;-70
2022/06/21 06:52:58;;;;;;;7.30;5.60;;;23.40;1.00;;;;;;5073940;28;20176;-71
2022/06/21 06:55:42;;;;;;;6.00;5.10;;;23.30;1.00;;;;;;5084964;28;20211;-70
2022/06/21 06:58:28;;;;;;;6.05;5.13;;;23.90;1.00;;;;;;5089206;28;20184;-69
2022/06/21 07:01:02;;;;;;;8.10;5.18;;;23.80;1.00;;;;;;5081519;28;20176;-68
2022/06/21 07:03:34;;;;;;;5.75;5.20;;;24.50;99.90;;;;;;5066309;28;21074;-71
2022/06/21 07:06:24;;;;;;;7.35;5.03;;;23.60;1.00;;;;;;5072154;28;20184;-71
2022/06/21 07:09:19;;;;;;;8.88;5.47;;;24.20;1.00;;;;;;5069991;28;20180;-69
2022/06/21 07:11:55;;;;;;;8.23;5.50;;;23.00;1.00;;;;;;5053009;28;20241;-71
2022/06/21 07:14:24;;;;;;;6.85;5.38;;;22.70;1.00;;;;;;5068506;28;20176;-73
2022/06/21 07:17:01;;;;;;;7.65;5.63;;;22.80;1.00;;;;;;5072000;28;20187;-70
2022/06/21 07:19:27;;;;;;;7.28;5.50;;;22.10;99.90;;;;;;5071466;28;20685;-69
2022/06/21 07:21:54;;;;;;;7.13;5.78;;;21.60;1.00;;;;;;5075997;28;20180;-69
2022/06/21 07:24:21;;;;;;;6.50;5.60;;;21.20;35.00;;;;;;5076249;28;20638;-67
2022/06/21 07:26:55;;;;;;;8.55;5.85;;;20.70;1.00;;;;;;5071170;28;20187;-68
2022/06/21 07:29:51;;;;;;;7.85;6.82;;;20.40;99.90;;;;;;5067834;28;20182;-68
2022/06/21 07:32:21;;;;;;;8.95;6.40;;;19.70;99.90;;;;;;5080825;28;20176;-67
2022/06/21 07:35:10;;;;;;;9.00;6.28;;;19.50;1.00;;;;;;5079639;28;20177;-69
2022/06/21 07:37:42;;;;;;;8.15;6.97;;;19.10;99.90;;;;;;5089156;28;20646;-67
2022/06/21 07:40:13;;;;;;;8.85;6.80;;;18.90;1.00;;;;;;5113568;28;20294;-67
2022/06/21 07:42:54;;;;;;;8.25;6.45;;;18.30;99.90;;;;;;5109483;28;20164;-69
2022/06/21 07:45:23;;;;;;;8.27;7.28;;;18.20;1.00;;;;;;5093672;28;20572;-69
2022/06/21 07:47:53;;;;;;;11.07;7.03;;;18.30;99.90;;;;;;5093370;28;20234;-68
2022/06/21 07:50:30;;;;;;;9.43;6.90;;;18.10;1.00;;;;;;5093284;28;20524;-69
2022/06/21 07:53:09;;;;;;;11.90;8.00;;;18.00;1.00;;;;;;5093786;28;20220;-67
2022/06/21 07:55:43;;;;;;;13.37;7.37;;;18.30;1.00;;;;;;5093657;28;20156;-69
2022/06/21 07:58:17;;;;;;;12.77;7.33;;;18.60;99.90;;;;;;5093388;28;20171;-68
2022/06/21 08:06:41;;;;;;;10.15;7.10;;;19.10;1.00;;;;;;5093508;28;20179;-68
2022/06/21 08:09:25;;;;;;;9.45;6.90;;;19.20;99.90;;;;;;5093944;28;20251;-68
2022/06/21 08:11:53;;;;;;;9.93;7.00;;;19.00;1.00;;;;;;5093272;28;20178;-67
2022/06/21 08:14:19;;;;;;;10.38;6.80;;;18.90;1.00;;;;;;5093297;28;20171;-67
2022/06/21 08:16:49;;;;;;;10.98;6.72;;;18.90;11.00;;;;;;5092499;28;20231;-69
2022/06/21 08:19:28;;;;;;;12.52;6.80;;;19.20;99.90;;;;;;5093169;28;20218;-68
2022/06/21 08:22:11;;;;;;;10.85;6.50;;;19.10;99.90;;;;;;5094188;28;20210;-67
2022/06/21 08:24:56;;;;;;;15.27;7.10;;;19.00;1.00;;;;;;5093072;28;20184;-66
2022/06/21 08:27:50;;;;;;;7.70;6.20;;;18.90;1.00;;;;;;5093234;28;20175;-67
2022/06/21 08:30:24;;;;;;;11.25;6.20;;;18.90;99.90;;;;;;5093548;28;20175;-68
2022/06/21 08:33:05;;;;;;;9.60;6.40;;;18.90;1.00;;;;;;5092979;28;20168;-68
2022/06/21 08:35:34;;;;;;;8.10;6.20;;;19.00;99.90;;;;;;5092626;28;20204;-69
2022/06/21 08:38:16;;;;;;;7.63;5.90;;;18.70;99.90;;;;;;5093210;28;20251;-68
2022/06/21 08:41:51;;;;;;;9.55;6.35;;;19.00;1.00;;;;;;5093075;28;20187;-69
2022/06/21 08:44:34;;;;;;;13.73;6.32;;;19.00;99.90;;;;;;5087255;28;20172;-69
2022/06/21 08:47:20;;;;;;;7.20;5.68;;;19.30;99.90;;;;;;5073519;28;20202;-68
2022/06/21 08:49:58;;;;;;;9.95;5.47;;;19.20;1.00;;;;;;5072347;28;20176;-68
2022/06/21 08:52:42;;;;;;;12.23;6.18;;;19.20;99.90;;;;;;5072896;28;20168;-67
2022/06/21 08:55:31;;;;;;;10.82;7.05;;;19.20;99.90;;;;;;5072961;28;20184;-68
2022/06/21 08:58:13;;;;;;;15.27;6.55;;;19.30;99.90;;;;;;5082651;28;20286;-68
2022/06/21 09:01:07;;;;;;;8.77;6.47;;;19.40;99.90;;;;;;5092749;28;20303;-66
2022/06/21 09:03:48;;;;;;;9.27;6.68;;;19.30;1.00;;;;;;5089227;28;20243;-67
2022/06/21 09:06:16;;;;;;;9.32;7.15;;;19.20;1.00;;;;;;5092919;28;20179;-66
2022/06/21 09:09:28;;;;;;;11.57;7.28;;;19.10;1.00;;;;;;5092331;28;20638;-67
2022/06/21 09:12:12;;;;;;;10.82;6.53;;;19.00;1.00;;;;;;5092242;28;20277;-66
2022/06/21 09:15:01;;;;;;;9.88;6.55;;;19.00;1.00;;;;;;5089075;28;20180;-68
2022/06/21 09:17:51;;;;;;;7.70;6.22;;;19.40;1.00;;;;;;5072420;28;20222;-68
2022/06/21 09:20:26;;;;;;;9.35;6.55;;;19.90;7.40;;;;;;5071466;28;20212;-68
2022/06/21 09:23:18;;;;;;;10.65;6.95;;;19.60;99.90;;;;;;5071590;28;20269;-68
2022/06/21 09:25:47;;;;;;;10.48;6.50;;;19.40;99.90;;;;;;5071964;28;20169;-68
2022/06/21 09:28:29;;;;;;;7.88;6.30;;;19.50;1.00;;;;;;5076291;28;20174;-67
2022/06/21 09:31:10;;;;;;;8.55;6.78;;;19.30;1.00;;;;;;5072430;28;20184;-66
2022/06/21 09:34:02;;;;;;;9.55;6.78;;;19.20;1.00;;;;;;5071166;28;20176;-67
2022/06/21 09:36:48;;;;;;;7.50;5.80;;;19.20;1.00;;;;;;5063910;28;20185;-68
2022/06/21 09:39:36;;;;;;;9.00;6.50;;;19.50;1.00;;;;;;5076873;28;20192;-68
2022/06/21 09:42:11;;;;;;;9.45;6.20;;;19.60;99.90;;;;;;5084045;28;20168;-69
2022/06/21 09:44:47;;;;;;;9.85;6.68;;;19.70;1.00;;;;;;5084505;28;20281;-66
2022/06/21 09:47:15;;;;;;;7.78;6.25;;;19.50;22.80;;;;;;5091377;28;20207;-68
2022/06/21 09:50:13;;;;;;;10.88;5.95;;;19.40;99.90;;;;;;5090336;28;20187;-68
2022/06/21 09:52:44;;;;;;;7.68;5.95;;;19.80;1.00;;;;;;5071770;28;20176;-67
2022/06/21 09:55:24;;;;;;;18.27;7.47;;;19.90;1.00;;;;;;5071002;28;20631;-67
2022/06/21 09:58:13;;;;;;;6.88;6.07;;;19.90;1.00;;;;;;5072064;28;20226;-68
2022/06/21 10:00:45;;;;;;;9.95;5.78;;;19.80;1.00;;;;;;5071354;28;20269;-67
2022/06/21 10:03:29;;;;;;;8.85;5.07;;;20.10;99.90;;;;;;5071800;28;20216;-68
2022/06/21 10:06:32;;;;;;;9.52;5.40;;;20.00;1.00;;;;;;5071533;28;20644;-67
2022/06/21 10:09:15;;;;;;;11.10;6.00;;;20.00;1.00;;;;;;5071904;28;20188;-68
2022/06/21 10:12:13;;;;;;;8.50;6.13;;;19.80;99.90;;;;;;5072866;28;20164;-70
2022/06/21 10:15:13;;;;;;;8.07;5.72;;;19.50;99.90;;;;;;5075640;28;20180;-68
2022/06/21 10:17:53;;;;;;;10.35;6.22;;;19.20;99.90;;;;;;5073907;28;20165;-68
2022/06/21 10:20:28;;;;;;;7.53;5.60;;;19.10;1.00;;;;;;5074806;28;20279;-68
2022/06/21 10:23:26;;;;;;;7.90;6.30;;;19.00;1.00;;;;;;5074758;28;20163;-68
2022/06/21 10:26:21;;;;;;;11.55;6.18;;;19.20;1.00;;;;;;5080795;28;20179;-68
2022/06/21 10:29:23;;;;;;;12.50;6.53;;;19.40;1.00;;;;;;5094109;28;20164;-69
2022/06/21 10:32:11;;;;;;;9.02;6.00;;;19.60;1.00;;;;;;5093587;28;20487;-68
2022/06/21 10:34:49;;;;;;;12.40;6.60;;;19.40;64.90;;;;;;5094969;28;20174;-68
2022/06/21 10:37:31;;;;;;;8.18;5.60;;;19.20;1.00;;;;;;5087319;28;20238;-68
2022/06/21 10:40:33;;;;;;;9.57;5.50;;;19.20;99.90;;;;;;5080336;28;20201;-69
2022/06/21 10:43:32;;;;;;;11.60;7.00;;;19.10;97.70;;;;;;5088221;28;20178;-66
2022/06/21 10:46:00;;;;;;;13.68;7.15;;;19.00;1.00;;;;;;5077836;28;20195;-68
2022/06/21 10:49:04;;;;;;;6.83;6.07;;;18.70;1.00;;;;;;5075166;28;20180;-68
2022/06/21 10:51:48;;;;;;;9.80;5.93;;;18.70;99.90;;;;;;5101772;28;20178;-68
2022/06/21 10:54:20;;;;;;;11.02;6.22;;;19.00;1.00;;;;;;5114553;28;20246;-68
2022/06/21 10:57:10;;;;;;;11.85;6.72;;;18.90;1.00;;;;;;5107835;28;20187;-68
2022/06/21 11:02:56;;;;;;;7.95;6.38;;;19.00;1.00;;;;;;5073657;28;20309;-67
2022/06/21 11:05:58;;;;;;;7.10;6.40;;;19.00;1.00;;;;;;5077547;28;20176;-69
2022/06/21 11:08:45;;;;;;;8.32;5.97;;;18.90;91.60;;;;;;5087687;28;20279;-69
2022/06/21 11:11:25;;;;;;;11.73;6.13;;;18.80;1.00;;;;;;5093217;28;20275;-68
2022/06/21 11:14:26;;;;;;;7.83;6.13;;;18.70;95.90;;;;;;5092777;28;20216;-69
2022/06/21 11:16:54;;;;;;;11.23;6.03;;;18.80;99.90;;;;;;5077095;28;20479;-68
2022/06/21 11:19:39;;;;;;;7.60;5.63;;;18.70;99.90;;;;;;5084528;28;20243;-68
2022/06/21 11:22:39;;;;;;;9.95;5.63;;;18.90;99.90;;;;;;5093325;28;20168;-69
2022/06/21 11:25:37;;;;;;;10.48;5.93;;;18.90;1.00;;;;;;5094837;28;20172;-69
2022/06/21 11:28:41;;;;;;;10.67;5.77;;;19.00;46.40;;;;;;5094276;28;20180;-69
2022/06/21 11:31:24;;;;;;;11.17;6.33;;;18.90;1.00;;;;;;5094901;28;20203;-69
2022/06/21 11:34:11;;;;;;;9.60;5.80;;;19.10;99.90;;;;;;5094262;28;20159;-68
2022/06/21 11:36:49;;;;;;;10.85;5.88;;;19.10;1.00;;;;;;5093854;28;20199;-69
2022/06/21 11:39:44;;;;;;;11.15;6.68;;;19.30;99.90;;;;;;5094319;28;20196;-70
2022/06/21 11:42:15;;;;;;;9.73;6.18;;;19.30;99.90;;;;;;5094662;28;20262;-69
2022/06/21 11:45:03;;;;;;;9.52;6.65;;;19.40;1.00;;;;;;5073862;28;20172;-68
2022/06/21 11:48:10;;;;;;;12.15;6.25;;;19.50;1.00;;;;;;5073763;28;20295;-69
2022/06/21 11:50:52;;;;;;;9.38;6.28;;;19.70;1.00;;;;;;5083212;28;20215;-70
2022/06/21 11:53:31;;;;;;;12.25;6.00;;;19.90;99.90;;;;;;5094200;28;20174;-69
2022/06/21 11:56:09;;;;;;;9.80;6.03;;;19.70;99.90;;;;;;5092894;28;20191;-69
2022/06/21 11:58:44;;;;;;;8.40;6.20;;;19.60;1.00;;;;;;5083627;28;20184;-69
2022/06/21 12:01:28;;;;;;;13.85;6.72;;;19.60;1.00;;;;;;5073907;28;20176;-69
2022/06/21 12:04:21;;;;;;;8.60;6.25;;;19.70;1.00;;;;;;5083568;28;20291;-69
2022/06/21 12:07:15;;;;;;;14.50;5.60;;;19.70;99.90;;;;;;5078189;28;20181;-68
2022/06/21 12:10:19;;;;;;;10.55;5.53;;;19.60;99.90;;;;;;5081587;28;20200;-68
2022/06/21 12:12:57;;;;;;;10.20;5.93;;;19.40;1.00;;;;;;5085950;28;20170;-68
2022/06/21 12:15:46;;;;;;;7.78;5.30;;;19.40;1.40;;;;;;5093354;28;20178;-69
2022/06/21 12:18:18;;;;;;;8.18;5.68;;;19.10;1.00;;;;;;5093603;28;20192;-68
2022/06/21 12:20:55;;;;;;;9.00;5.50;;;19.20;1.00;;;;;;5093707;28;20214;-68
2022/06/21 12:23:35;;;;;;;7.82;4.55;;;19.40;99.90;;;;;;5092329;28;20159;-67
2022/06/21 12:26:01;;;;;;;14.32;7.88;;;19.80;99.90;;;;;;5086397;28;20243;-69
2022/06/21 12:28:30;;;;;;;5.85;5.35;;;19.90;1.00;;;;;;5080326;28;20175;-68
2022/06/21 12:30:58;;;;;;;9.65;5.45;;;19.80;24.00;;;;;;5081509;28;20169;-69
2022/06/21 12:33:30;;;;;;;9.05;5.30;;;19.70;24.10;;;;;;5072270;28;20251;-69
2022/06/21 12:35:55;;;;;;;4.70;4.20;;;19.60;28.30;;;;;;5072869;28;20157;-68
2022/06/21 12:38:32;;;;;;;7.95;4.82;;;19.40;1.00;;;;;;5072963;28;20271;-69
2022/06/21 12:41:31;;;;;;;13.75;4.80;;;19.30;1.00;;;;;;5073142;28;20192;-68
2022/06/21 12:44:24;;;;;;;11.55;7.95;;;19.40;1.00;;;;;;5086889;28;20312;-68
2022/06/21 12:47:01;;;;;;;9.00;5.93;;;19.50;1.00;;;;;;5093119;28;20172;-68
2022/06/21 12:49:35;;;;;;;7.95;5.57;;;19.60;1.00;;;;;;5092033;28;20191;-68
2022/06/21 12:52:29;;;;;;;11.02;5.85;;;19.30;99.90;;;;;;5093460;28;20164;-69
2022/06/21 12:55:39;;;;;;;12.52;6.05;;;19.60;1.00;;;;;;5082740;28;20161;-69
2022/06/21 12:58:13;;;;;;;12.23;8.00;;;19.40;1.00;;;;;;5072649;28;20184;-69
2022/06/21 13:00:55;;;;;;;8.20;5.97;;;19.60;1.00;;;;;;5072031;28;20574;-68
2022/06/21 13:03:37;;;;;;;9.48;5.93;;;19.60;1.00;;;;;;5071434;28;20222;-68
2022/06/21 13:06:22;;;;;;;7.25;5.00;;;19.60;99.90;;;;;;5072573;28;20176;-69
2022/06/21 13:09:22;;;;;;;9.63;5.78;;;19.70;99.90;;;;;;5072595;28;20219;-69
2022/06/21 13:11:57;;;;;;;10.80;6.72;;;20.00;99.90;;;;;;5072492;28;20183;-69
2022/06/21 13:14:38;;;;;;;12.90;5.18;;;20.10;1.00;;;;;;5072766;28;20259;-69
2022/06/21 13:17:57;;;;;;;16.85;6.30;;;20.10;99.90;;;;;;5072329;28;20175;-68
2022/06/21 13:20:52;;;;;;;7.65;5.97;;;20.20;1.00;;;;;;5010199;28;20214;-69
2022/06/21 13:23:31;;;;;;;11.77;5.80;;;20.30;1.00;;;;;;5009155;28;20182;-69
2022/06/21 13:26:31;;;;;;;10.65;5.80;;;20.30;99.90;;;;;;5009312;28;20289;-69
2022/06/21 13:29:09;;;;;;;17.25;6.22;;;20.30;1.00;;;;;;4993132;28;20190;-68
2022/06/21 13:31:57;;;;;;;10.18;5.95;;;20.30;58.80;;;;;;5004492;28;20174;-69
2022/06/21 13:34:31;;;;;;;13.18;5.68;;;19.90;1.00;;;;;;5009444;28;20213;-69
2022/06/21 13:37:00;;;;;;;8.00;5.10;;;19.70;99.90;;;;;;5009618;28;20177;-68
2022/06/21 13:39:58;;;;;;;13.25;6.43;;;19.50;1.00;;;;;;5010364;28;20218;-68
2022/06/21 13:42:46;;;;;;;11.65;6.47;;;19.40;1.00;;;;;;5009448;28;20179;-68
2022/06/21 13:45:39;;;;;;;15.23;6.63;;;19.20;99.90;;;;;;5008833;28;20177;-67
2022/06/21 13:48:27;;;;;;;15.40;6.40;;;19.40;99.90;;;;;;5008816;28;20241;-67
2022/06/21 13:51:21;;;;;;;9.85;6.45;;;19.30;69.80;;;;;;5009657;28;20689;-68
2022/06/21 13:54:03;;;;;;;9.43;5.82;;;19.30;1.00;;;;;;5035549;28;20230;-68
2022/06/21 13:56:47;;;;;;;7.22;5.70;;;19.50;1.00;;;;;;5072911;28;20222;-70